Aviation Digital Data Service (ADDS)

Output produced by METARs form (0505 UTC 21 January 2019)
found at http://www.aviationweather.gov/metar/data/
 
Forecast for: WMKC (KOTA BHARU/SULTA, MY)
Text: TAF WMKC 210500Z 2106/2206 08010KT 9999 SCT018 BKN280
Forecast period: 0600 UTC 21 January 2019 to 0600 UTC 22 January 2019
Forecast type: FROM: standard forecast or significant change
Winds: from the E (80 degrees) at 12 MPH (10 knots; 5.1 m/s)
Visibility: 6 or more miles 10+ km)
Ceiling: 28000 feet AGL
Clouds: scattered clouds at 1800 feet AGL
broken clouds at 28000 feet AGL
Weather: no significant weather forecast for this period